sensor_id;sensor_type;location;lat;lon;timestamp;P1;durP1;ratioP1;P2;durP2;ratioP2
48524;SDS011;34316;51.514;-0.178;2023-11-22T00:00:56;31.10;;;24.48;;
48524;SDS011;34316;51.514;-0.178;2023-11-22T00:02:58;34.42;;;23.88;;
48524;SDS011;34316;51.514;-0.178;2023-11-22T00:05:00;31.23;;;23.20;;
48524;SDS011;34316;51.514;-0.178;2023-11-22T00:07:01;30.23;;;23.30;;
48524;SDS011;34316;51.514;-0.178;2023-11-22T00:09:03;33.00;;;22.95;;
48524;SDS011;34316;51.514;-0.178;2023-11-22T00:11:06;35.42;;;23.23;;
48524;SDS011;34316;51.514;-0.178;2023-11-22T00:13:07;32.75;;;23.05;;
48524;SDS011;34316;51.514;-0.178;2023-11-22T00:15:09;29.67;;;23.00;;
48524;SDS011;34316;51.514;-0.178;2023-11-22T00:17:13;31.80;;;24.27;;
48524;SDS011;34316;51.514;-0.178;2023-11-22T00:19:15;30.95;;;23.67;;
48524;SDS011;34316;51.514;-0.178;2023-11-22T00:21:20;29.05;;;22.35;;
48524;SDS011;34316;51.514;-0.178;2023-11-22T00:23:22;34.75;;;23.98;;
48524;SDS011;34316;51.514;-0.178;2023-11-22T00:25:28;33.35;;;22.58;;
48524;SDS011;34316;51.514;-0.178;2023-11-22T00:27:30;29.75;;;21.58;;
48524;SDS011;34316;51.514;-0.178;2023-11-22T00:29:35;30.13;;;22.38;;
48524;SDS011;34316;51.514;-0.178;2023-11-22T00:31:37;32.83;;;23.60;;
48524;SDS011;34316;51.514;-0.178;2023-11-22T00:33:38;38.10;;;22.58;;
48524;SDS011;34316;51.514;-0.178;2023-11-22T00:35:40;34.00;;;20.90;;
48524;SDS011;34316;51.514;-0.178;2023-11-22T00:37:42;30.00;;;21.83;;
48524;SDS011;34316;51.514;-0.178;2023-11-22T00:39:44;29.58;;;21.25;;
48524;SDS011;34316;51.514;-0.178;2023-11-22T00:41:46;31.27;;;22.25;;
48524;SDS011;34316;51.514;-0.178;2023-11-22T00:43:48;29.27;;;22.75;;
48524;SDS011;34316;51.514;-0.178;2023-11-22T00:45:49;36.92;;;23.15;;
48524;SDS011;34316;51.514;-0.178;2023-11-22T00:47:54;29.38;;;21.05;;
48524;SDS011;34316;51.514;-0.178;2023-11-22T00:49:56;30.88;;;21.50;;
48524;SDS011;34316;51.514;-0.178;2023-11-22T00:51:58;31.23;;;20.88;;
48524;SDS011;34316;51.514;-0.178;2023-11-22T00:56:04;29.80;;;21.58;;
48524;SDS011;34316;51.514;-0.178;2023-11-22T01:00:09;28.45;;;21.48;;
48524;SDS011;34316;51.514;-0.178;2023-11-22T01:02:12;29.38;;;21.25;;
48524;SDS011;34316;51.514;-0.178;2023-11-22T01:04:14;30.42;;;21.35;;
48524;SDS011;34316;51.514;-0.178;2023-11-22T01:06:16;31.33;;;21.40;;
48524;SDS011;34316;51.514;-0.178;2023-11-22T01:08:19;28.00;;;20.15;;
48524;SDS011;34316;51.514;-0.178;2023-11-22T01:10:21;28.45;;;20.85;;
48524;SDS011;34316;51.514;-0.178;2023-11-22T01:12:23;28.90;;;21.00;;
48524;SDS011;34316;51.514;-0.178;2023-11-22T01:14:25;29.92;;;20.30;;
48524;SDS011;34316;51.514;-0.178;2023-11-22T01:16:27;28.92;;;20.05;;
48524;SDS011;34316;51.514;-0.178;2023-11-22T01:18:29;25.70;;;19.08;;
48524;SDS011;34316;51.514;-0.178;2023-11-22T01:20:31;29.27;;;20.48;;
48524;SDS011;34316;51.514;-0.178;2023-11-22T01:22:33;27.55;;;19.02;;
48524;SDS011;34316;51.514;-0.178;2023-11-22T01:24:36;25.23;;;19.40;;
48524;SDS011;34316;51.514;-0.178;2023-11-22T01:26:38;31.50;;;20.85;;
48524;SDS011;34316;51.514;-0.178;2023-11-22T01:28:40;26.00;;;19.75;;
48524;SDS011;34316;51.514;-0.178;2023-11-22T01:30:45;27.38;;;20.00;;
48524;SDS011;34316;51.514;-0.178;2023-11-22T01:32:47;30.92;;;20.17;;
48524;SDS011;34316;51.514;-0.178;2023-11-22T01:34:50;31.08;;;20.08;;
48524;SDS011;34316;51.514;-0.178;2023-11-22T01:36:52;24.80;;;19.85;;
48524;SDS011;34316;51.514;-0.178;2023-11-22T01:38:54;24.83;;;19.20;;
48524;SDS011;34316;51.514;-0.178;2023-11-22T01:40:57;28.30;;;19.98;;
48524;SDS011;34316;51.514;-0.178;2023-11-22T01:42:59;25.85;;;20.17;;
48524;SDS011;34316;51.514;-0.178;2023-11-22T01:45:01;27.80;;;18.60;;
48524;SDS011;34316;51.514;-0.178;2023-11-22T01:47:03;25.65;;;18.83;;
48524;SDS011;34316;51.514;-0.178;2023-11-22T01:49:06;26.70;;;19.25;;
48524;SDS011;34316;51.514;-0.178;2023-11-22T01:51:07;27.67;;;19.42;;
48524;SDS011;34316;51.514;-0.178;2023-11-22T01:53:10;24.65;;;19.80;;
48524;SDS011;34316;51.514;-0.178;2023-11-22T01:55:13;26.50;;;19.25;;
48524;SDS011;34316;51.514;-0.178;2023-11-22T01:57:17;29.75;;;18.52;;
48524;SDS011;34316;51.514;-0.178;2023-11-22T01:59:19;34.80;;;18.58;;
48524;SDS011;34316;51.514;-0.178;2023-11-22T02:01:21;24.75;;;18.70;;
48524;SDS011;34316;51.514;-0.178;2023-11-22T02:03:23;24.65;;;18.45;;
48524;SDS011;34316;51.514;-0.178;2023-11-22T02:05:26;24.30;;;18.95;;
48524;SDS011;34316;51.514;-0.178;2023-11-22T02:07:28;22.58;;;18.27;;
48524;SDS011;34316;51.514;-0.178;2023-11-22T02:09:29;25.52;;;18.35;;
48524;SDS011;34316;51.514;-0.178;2023-11-22T02:11:31;27.05;;;18.55;;
48524;SDS011;34316;51.514;-0.178;2023-11-22T02:13:33;27.17;;;18.70;;
48524;SDS011;34316;51.514;-0.178;2023-11-22T02:15:35;23.50;;;17.73;;
48524;SDS011;34316;51.514;-0.178;2023-11-22T02:17:37;26.17;;;18.58;;
48524;SDS011;34316;51.514;-0.178;2023-11-22T02:19:39;25.80;;;18.73;;
48524;SDS011;34316;51.514;-0.178;2023-11-22T02:21:41;25.20;;;17.98;;
48524;SDS011;34316;51.514;-0.178;2023-11-22T02:23:43;24.48;;;18.30;;
48524;SDS011;34316;51.514;-0.178;2023-11-22T02:25:45;23.60;;;18.65;;
48524;SDS011;34316;51.514;-0.178;2023-11-22T02:27:50;31.23;;;18.98;;
48524;SDS011;34316;51.514;-0.178;2023-11-22T02:29:51;29.80;;;19.20;;
48524;SDS011;34316;51.514;-0.178;2023-11-22T02:31:53;22.13;;;17.13;;
48524;SDS011;34316;51.514;-0.178;2023-11-22T02:33:55;22.70;;;17.67;;
48524;SDS011;34316;51.514;-0.178;2023-11-22T02:35:57;23.50;;;17.42;;
48524;SDS011;34316;51.514;-0.178;2023-11-22T02:37:59;28.13;;;19.45;;
48524;SDS011;34316;51.514;-0.178;2023-11-22T02:40:05;24.27;;;18.33;;
48524;SDS011;34316;51.514;-0.178;2023-11-22T02:42:11;26.90;;;19.13;;
48524;SDS011;34316;51.514;-0.178;2023-11-22T02:44:13;23.90;;;17.83;;
48524;SDS011;34316;51.514;-0.178;2023-11-22T02:46:18;23.50;;;17.80;;
48524;SDS011;34316;51.514;-0.178;2023-11-22T02:48:20;22.55;;;17.27;;
48524;SDS011;34316;51.514;-0.178;2023-11-22T02:50:22;24.48;;;17.55;;
48524;SDS011;34316;51.514;-0.178;2023-11-22T02:52:24;23.55;;;17.50;;
48524;SDS011;34316;51.514;-0.178;2023-11-22T02:54:27;25.25;;;18.20;;
48524;SDS011;34316;51.514;-0.178;2023-11-22T02:56:30;23.70;;;17.70;;
48524;SDS011;34316;51.514;-0.178;2023-11-22T02:58:32;19.80;;;16.73;;
48524;SDS011;34316;51.514;-0.178;2023-11-22T03:00:34;21.27;;;16.88;;
48524;SDS011;34316;51.514;-0.178;2023-11-22T03:02:36;24.20;;;17.00;;
48524;SDS011;34316;51.514;-0.178;2023-11-22T03:04:38;25.75;;;16.80;;
48524;SDS011;34316;51.514;-0.178;2023-11-22T03:06:40;22.30;;;16.95;;
48524;SDS011;34316;51.514;-0.178;2023-11-22T03:08:42;25.05;;;17.48;;
48524;SDS011;34316;51.514;-0.178;2023-11-22T03:10:44;21.15;;;16.55;;
48524;SDS011;34316;51.514;-0.178;2023-11-22T03:12:46;25.10;;;17.52;;
48524;SDS011;34316;51.514;-0.178;2023-11-22T03:14:47;24.23;;;17.95;;
48524;SDS011;34316;51.514;-0.178;2023-11-22T03:16:49;24.55;;;16.73;;
48524;SDS011;34316;51.514;-0.178;2023-11-22T03:18:52;22.63;;;16.92;;
48524;SDS011;34316;51.514;-0.178;2023-11-22T03:20:55;21.70;;;16.73;;
48524;SDS011;34316;51.514;-0.178;2023-11-22T03:22:58;21.00;;;17.00;;
48524;SDS011;34316;51.514;-0.178;2023-11-22T03:25:02;23.67;;;16.65;;
48524;SDS011;34316;51.514;-0.178;2023-11-22T03:27:05;20.80;;;16.17;;
48524;SDS011;34316;51.514;-0.178;2023-11-22T03:29:07;23.20;;;16.45;;
48524;SDS011;34316;51.514;-0.178;2023-11-22T03:31:09;21.33;;;17.02;;
48524;SDS011;34316;51.514;-0.178;2023-11-22T03:33:11;22.00;;;16.50;;
48524;SDS011;34316;51.514;-0.178;2023-11-22T03:35:13;22.00;;;17.60;;
48524;SDS011;34316;51.514;-0.178;2023-11-22T03:37:15;24.80;;;16.95;;
48524;SDS011;34316;51.514;-0.178;2023-11-22T03:39:17;22.33;;;16.33;;
48524;SDS011;34316;51.514;-0.178;2023-11-22T03:41:18;21.95;;;17.02;;
48524;SDS011;34316;51.514;-0.178;2023-11-22T03:43:20;22.77;;;16.85;;
48524;SDS011;34316;51.514;-0.178;2023-11-22T03:45:22;21.83;;;16.58;;
48524;SDS011;34316;51.514;-0.178;2023-11-22T03:47:24;22.80;;;16.88;;
48524;SDS011;34316;51.514;-0.178;2023-11-22T03:49:26;21.10;;;16.63;;
48524;SDS011;34316;51.514;-0.178;2023-11-22T03:51:28;25.17;;;16.35;;
48524;SDS011;34316;51.514;-0.178;2023-11-22T03:53:29;21.25;;;16.55;;
48524;SDS011;34316;51.514;-0.178;2023-11-22T03:55:31;20.80;;;16.58;;
48524;SDS011;34316;51.514;-0.178;2023-11-22T03:57:33;21.73;;;16.35;;
48524;SDS011;34316;51.514;-0.178;2023-11-22T03:59:35;25.63;;;17.50;;
48524;SDS011;34316;51.514;-0.178;2023-11-22T04:01:37;26.58;;;17.35;;
48524;SDS011;34316;51.514;-0.178;2023-11-22T04:03:40;27.15;;;18.13;;
48524;SDS011;34316;51.514;-0.178;2023-11-22T04:05:42;22.50;;;17.73;;
48524;SDS011;34316;51.514;-0.178;2023-11-22T04:07:44;22.48;;;16.73;;
48524;SDS011;34316;51.514;-0.178;2023-11-22T04:09:46;26.38;;;17.85;;
48524;SDS011;34316;51.514;-0.178;2023-11-22T04:11:48;24.23;;;17.08;;
48524;SDS011;34316;51.514;-0.178;2023-11-22T04:13:50;23.23;;;17.27;;
48524;SDS011;34316;51.514;-0.178;2023-11-22T04:15:52;25.63;;;17.95;;
48524;SDS011;34316;51.514;-0.178;2023-11-22T04:17:54;29.30;;;17.77;;
48524;SDS011;34316;51.514;-0.178;2023-11-22T04:19:57;23.20;;;17.45;;
48524;SDS011;34316;51.514;-0.178;2023-11-22T04:21:59;23.50;;;17.98;;
48524;SDS011;34316;51.514;-0.178;2023-11-22T04:24:01;26.08;;;17.95;;
48524;SDS011;34316;51.514;-0.178;2023-11-22T04:26:03;28.05;;;18.00;;
48524;SDS011;34316;51.514;-0.178;2023-11-22T04:28:05;25.77;;;17.75;;
48524;SDS011;34316;51.514;-0.178;2023-11-22T04:30:10;28.35;;;19.20;;
48524;SDS011;34316;51.514;-0.178;2023-11-22T04:32:16;27.83;;;17.65;;
48524;SDS011;34316;51.514;-0.178;2023-11-22T04:34:17;28.70;;;18.20;;
48524;SDS011;34316;51.514;-0.178;2023-11-22T04:36:19;27.27;;;17.70;;
48524;SDS011;34316;51.514;-0.178;2023-11-22T04:38:25;26.65;;;18.23;;
48524;SDS011;34316;51.514;-0.178;2023-11-22T04:40:27;28.17;;;18.60;;
48524;SDS011;34316;51.514;-0.178;2023-11-22T04:42:29;25.13;;;17.55;;
48524;SDS011;34316;51.514;-0.178;2023-11-22T04:44:31;22.70;;;16.17;;
48524;SDS011;34316;51.514;-0.178;2023-11-22T04:46:35;25.08;;;16.63;;
48524;SDS011;34316;51.514;-0.178;2023-11-22T04:48:37;23.33;;;16.45;;
48524;SDS011;34316;51.514;-0.178;2023-11-22T04:50:42;25.40;;;18.65;;
48524;SDS011;34316;51.514;-0.178;2023-11-22T04:52:44;23.20;;;17.67;;
48524;SDS011;34316;51.514;-0.178;2023-11-22T04:54:45;23.80;;;17.58;;
48524;SDS011;34316;51.514;-0.178;2023-11-22T04:56:47;26.02;;;18.08;;
48524;SDS011;34316;51.514;-0.178;2023-11-22T04:58:49;24.52;;;17.67;;
48524;SDS011;34316;51.514;-0.178;2023-11-22T05:02:54;27.65;;;17.83;;
48524;SDS011;34316;51.514;-0.178;2023-11-22T05:04:57;22.35;;;16.25;;
48524;SDS011;34316;51.514;-0.178;2023-11-22T05:06:59;27.10;;;17.98;;
48524;SDS011;34316;51.514;-0.178;2023-11-22T05:09:01;26.58;;;17.92;;
48524;SDS011;34316;51.514;-0.178;2023-11-22T05:11:03;19.83;;;15.90;;
48524;SDS011;34316;51.514;-0.178;2023-11-22T05:13:06;22.65;;;16.40;;
48524;SDS011;34316;51.514;-0.178;2023-11-22T05:15:08;22.50;;;17.67;;
48524;SDS011;34316;51.514;-0.178;2023-11-22T05:17:10;22.98;;;17.10;;
48524;SDS011;34316;51.514;-0.178;2023-11-22T05:19:13;22.23;;;16.33;;
48524;SDS011;34316;51.514;-0.178;2023-11-22T05:21:15;21.13;;;15.93;;
48524;SDS011;34316;51.514;-0.178;2023-11-22T05:23:17;21.38;;;16.85;;
48524;SDS011;34316;51.514;-0.178;2023-11-22T05:25:19;23.80;;;17.58;;
48524;SDS011;34316;51.514;-0.178;2023-11-22T05:27:21;24.77;;;17.60;;
48524;SDS011;34316;51.514;-0.178;2023-11-22T05:29:24;24.38;;;17.05;;
48524;SDS011;34316;51.514;-0.178;2023-11-22T05:31:32;22.23;;;16.77;;
48524;SDS011;34316;51.514;-0.178;2023-11-22T05:33:34;21.25;;;16.77;;
48524;SDS011;34316;51.514;-0.178;2023-11-22T05:35:36;25.23;;;17.27;;
48524;SDS011;34316;51.514;-0.178;2023-11-22T05:37:38;27.00;;;17.40;;
48524;SDS011;34316;51.514;-0.178;2023-11-22T05:39:40;21.63;;;17.05;;
48524;SDS011;34316;51.514;-0.178;2023-11-22T05:41:42;23.35;;;18.17;;
48524;SDS011;34316;51.514;-0.178;2023-11-22T05:43:44;23.40;;;18.02;;
48524;SDS011;34316;51.514;-0.178;2023-11-22T05:45:46;23.10;;;17.90;;
48524;SDS011;34316;51.514;-0.178;2023-11-22T05:47:51;25.38;;;20.10;;
48524;SDS011;34316;51.514;-0.178;2023-11-22T05:49:53;24.20;;;18.83;;
48524;SDS011;34316;51.514;-0.178;2023-11-22T05:51:56;26.00;;;19.10;;
48524;SDS011;34316;51.514;-0.178;2023-11-22T05:53:57;26.42;;;18.48;;
48524;SDS011;34316;51.514;-0.178;2023-11-22T05:55:59;23.80;;;17.63;;
48524;SDS011;34316;51.514;-0.178;2023-11-22T05:58:01;26.40;;;16.33;;
48524;SDS011;34316;51.514;-0.178;2023-11-22T06:00:03;23.85;;;17.35;;
48524;SDS011;34316;51.514;-0.178;2023-11-22T06:02:05;23.95;;;17.27;;
48524;SDS011;34316;51.514;-0.178;2023-11-22T06:04:07;21.67;;;17.35;;
48524;SDS011;34316;51.514;-0.178;2023-11-22T06:06:13;23.75;;;17.90;;
48524;SDS011;34316;51.514;-0.178;2023-11-22T06:08:15;23.92;;;18.10;;
48524;SDS011;34316;51.514;-0.178;2023-11-22T06:10:17;24.92;;;17.95;;
48524;SDS011;34316;51.514;-0.178;2023-11-22T06:12:19;21.88;;;17.50;;
48524;SDS011;34316;51.514;-0.178;2023-11-22T06:14:22;23.02;;;17.45;;
48524;SDS011;34316;51.514;-0.178;2023-11-22T06:16:23;22.42;;;16.70;;
48524;SDS011;34316;51.514;-0.178;2023-11-22T06:18:25;23.75;;;17.55;;
48524;SDS011;34316;51.514;-0.178;2023-11-22T06:20:31;24.38;;;18.38;;
48524;SDS011;34316;51.514;-0.178;2023-11-22T06:22:33;25.05;;;18.83;;
48524;SDS011;34316;51.514;-0.178;2023-11-22T06:24:35;25.10;;;18.52;;
48524;SDS011;34316;51.514;-0.178;2023-11-22T06:26:37;27.15;;;20.02;;
48524;SDS011;34316;51.514;-0.178;2023-11-22T06:30:44;27.38;;;20.27;;
48524;SDS011;34316;51.514;-0.178;2023-11-22T06:32:46;24.50;;;19.70;;
48524;SDS011;34316;51.514;-0.178;2023-11-22T06:34:47;27.63;;;20.33;;
48524;SDS011;34316;51.514;-0.178;2023-11-22T06:36:51;26.77;;;21.13;;
48524;SDS011;34316;51.514;-0.178;2023-11-22T06:38:53;28.15;;;20.90;;
48524;SDS011;34316;51.514;-0.178;2023-11-22T06:40:55;24.13;;;18.58;;
48524;SDS011;34316;51.514;-0.178;2023-11-22T06:42:57;25.98;;;20.33;;
48524;SDS011;34316;51.514;-0.178;2023-11-22T06:44:59;27.25;;;19.17;;
48524;SDS011;34316;51.514;-0.178;2023-11-22T06:47:01;26.80;;;19.30;;
48524;SDS011;34316;51.514;-0.178;2023-11-22T06:49:03;24.42;;;18.33;;
48524;SDS011;34316;51.514;-0.178;2023-11-22T06:51:06;27.23;;;19.80;;
48524;SDS011;34316;51.514;-0.178;2023-11-22T06:53:08;26.45;;;19.60;;
48524;SDS011;34316;51.514;-0.178;2023-11-22T06:55:10;27.17;;;17.90;;
48524;SDS011;34316;51.514;-0.178;2023-11-22T06:57:12;22.00;;;17.15;;
48524;SDS011;34316;51.514;-0.178;2023-11-22T06:59:14;20.77;;;16.20;;
48524;SDS011;34316;51.514;-0.178;2023-11-22T07:01:16;23.05;;;17.85;;
48524;SDS011;34316;51.514;-0.178;2023-11-22T07:03:18;26.45;;;19.48;;
48524;SDS011;34316;51.514;-0.178;2023-11-22T07:05:20;26.17;;;20.00;;
48524;SDS011;34316;51.514;-0.178;2023-11-22T07:07:22;25.58;;;19.45;;
48524;SDS011;34316;51.514;-0.178;2023-11-22T07:09:24;23.13;;;17.40;;
48524;SDS011;34316;51.514;-0.178;2023-11-22T07:11:26;26.55;;;18.80;;
48524;SDS011;34316;51.514;-0.178;2023-11-22T07:13:32;23.80;;;19.55;;
48524;SDS011;34316;51.514;-0.178;2023-11-22T07:15:35;28.67;;;19.40;;
48524;SDS011;34316;51.514;-0.178;2023-11-22T07:17:37;29.25;;;20.52;;
48524;SDS011;34316;51.514;-0.178;2023-11-22T07:19:40;28.15;;;20.05;;
48524;SDS011;34316;51.514;-0.178;2023-11-22T07:21:48;25.90;;;19.77;;
48524;SDS011;34316;51.514;-0.178;2023-11-22T07:23:50;24.13;;;18.60;;
48524;SDS011;34316;51.514;-0.178;2023-11-22T07:25:54;19.02;;;15.95;;
48524;SDS011;34316;51.514;-0.178;2023-11-22T07:27:56;18.92;;;15.23;;
48524;SDS011;34316;51.514;-0.178;2023-11-22T07:30:00;18.23;;;15.27;;
48524;SDS011;34316;51.514;-0.178;2023-11-22T07:32:02;19.67;;;14.45;;
48524;SDS011;34316;51.514;-0.178;2023-11-22T07:34:04;19.38;;;15.68;;
48524;SDS011;34316;51.514;-0.178;2023-11-22T07:36:07;20.88;;;15.32;;
48524;SDS011;34316;51.514;-0.178;2023-11-22T07:38:09;20.55;;;15.68;;
48524;SDS011;34316;51.514;-0.178;2023-11-22T07:40:13;18.92;;;15.95;;
48524;SDS011;34316;51.514;-0.178;2023-11-22T07:42:15;22.48;;;16.10;;
48524;SDS011;34316;51.514;-0.178;2023-11-22T07:44:17;18.48;;;14.85;;
48524;SDS011;34316;51.514;-0.178;2023-11-22T07:46:19;17.23;;;12.60;;
48524;SDS011;34316;51.514;-0.178;2023-11-22T07:48:21;18.23;;;13.75;;
48524;SDS011;34316;51.514;-0.178;2023-11-22T07:50:24;15.88;;;11.98;;
48524;SDS011;34316;51.514;-0.178;2023-11-22T07:52:26;18.10;;;13.00;;
48524;SDS011;34316;51.514;-0.178;2023-11-22T07:54:31;25.55;;;18.80;;
48524;SDS011;34316;51.514;-0.178;2023-11-22T07:56:33;27.92;;;20.38;;
48524;SDS011;34316;51.514;-0.178;2023-11-22T07:58:35;24.75;;;18.23;;
48524;SDS011;34316;51.514;-0.178;2023-11-22T08:00:37;19.60;;;15.10;;
48524;SDS011;34316;51.514;-0.178;2023-11-22T08:02:39;20.17;;;13.85;;
48524;SDS011;34316;51.514;-0.178;2023-11-22T08:04:41;18.63;;;14.15;;
48524;SDS011;34316;51.514;-0.178;2023-11-22T08:06:42;15.10;;;12.85;;
48524;SDS011;34316;51.514;-0.178;2023-11-22T08:08:45;37.42;;;16.23;;
48524;SDS011;34316;51.514;-0.178;2023-11-22T08:10:48;21.60;;;17.23;;
48524;SDS011;34316;51.514;-0.178;2023-11-22T08:12:53;20.65;;;14.82;;
48524;SDS011;34316;51.514;-0.178;2023-11-22T08:14:54;18.90;;;14.07;;
48524;SDS011;34316;51.514;-0.178;2023-11-22T08:16:58;15.30;;;13.20;;
48524;SDS011;34316;51.514;-0.178;2023-11-22T08:19:00;18.17;;;13.80;;
48524;SDS011;34316;51.514;-0.178;2023-11-22T08:21:01;19.65;;;14.13;;
48524;SDS011;34316;51.514;-0.178;2023-11-22T08:23:03;17.67;;;14.40;;
48524;SDS011;34316;51.514;-0.178;2023-11-22T08:27:09;19.17;;;15.93;;
48524;SDS011;34316;51.514;-0.178;2023-11-22T08:29:11;19.80;;;15.00;;
48524;SDS011;34316;51.514;-0.178;2023-11-22T08:31:13;21.33;;;15.30;;
48524;SDS011;34316;51.514;-0.178;2023-11-22T08:33:18;21.40;;;14.75;;
48524;SDS011;34316;51.514;-0.178;2023-11-22T08:35:20;19.25;;;14.85;;
48524;SDS011;34316;51.514;-0.178;2023-11-22T08:37:23;20.33;;;16.45;;
48524;SDS011;34316;51.514;-0.178;2023-11-22T08:39:25;28.42;;;18.27;;
48524;SDS011;34316;51.514;-0.178;2023-11-22T08:41:27;26.83;;;20.23;;
48524;SDS011;34316;51.514;-0.178;2023-11-22T08:43:31;31.27;;;21.80;;
48524;SDS011;34316;51.514;-0.178;2023-11-22T08:45:33;31.90;;;23.00;;
48524;SDS011;34316;51.514;-0.178;2023-11-22T08:47:36;30.35;;;22.48;;
48524;SDS011;34316;51.514;-0.178;2023-11-22T08:49:38;30.50;;;23.38;;
48524;SDS011;34316;51.514;-0.178;2023-11-22T08:51:39;31.52;;;22.58;;
48524;SDS011;34316;51.514;-0.178;2023-11-22T08:53:41;29.58;;;21.83;;
48524;SDS011;34316;51.514;-0.178;2023-11-22T08:55:47;31.10;;;22.52;;
48524;SDS011;34316;51.514;-0.178;2023-11-22T08:57:48;25.75;;;19.70;;
48524;SDS011;34316;51.514;-0.178;2023-11-22T08:59:52;26.67;;;18.38;;
48524;SDS011;34316;51.514;-0.178;2023-11-22T09:01:56;25.45;;;18.55;;
48524;SDS011;34316;51.514;-0.178;2023-11-22T09:03:58;37.88;;;25.23;;
48524;SDS011;34316;51.514;-0.178;2023-11-22T09:06:00;37.08;;;25.33;;
48524;SDS011;34316;51.514;-0.178;2023-11-22T09:08:02;39.75;;;26.55;;
48524;SDS011;34316;51.514;-0.178;2023-11-22T09:10:20;53.47;;;35.72;;
48524;SDS011;34316;51.514;-0.178;2023-11-22T09:12:23;35.50;;;28.25;;
48524;SDS011;34316;51.514;-0.178;2023-11-22T09:14:25;29.77;;;23.90;;
48524;SDS011;34316;51.514;-0.178;2023-11-22T09:16:27;29.88;;;24.02;;
48524;SDS011;34316;51.514;-0.178;2023-11-22T09:18:29;42.47;;;33.50;;
48524;SDS011;34316;51.514;-0.178;2023-11-22T09:20:31;49.60;;;36.13;;
48524;SDS011;34316;51.514;-0.178;2023-11-22T09:22:33;49.20;;;38.33;;
48524;SDS011;34316;51.514;-0.178;2023-11-22T09:24:35;48.50;;;38.70;;
48524;SDS011;34316;51.514;-0.178;2023-11-22T09:26:38;44.65;;;36.22;;
48524;SDS011;34316;51.514;-0.178;2023-11-22T09:28:40;48.85;;;36.33;;
48524;SDS011;34316;51.514;-0.178;2023-11-22T09:30:42;41.55;;;31.65;;
48524;SDS011;34316;51.514;-0.178;2023-11-22T09:32:45;37.22;;;29.73;;
48524;SDS011;34316;51.514;-0.178;2023-11-22T09:34:47;30.63;;;24.85;;
48524;SDS011;34316;51.514;-0.178;2023-11-22T09:36:50;28.20;;;22.02;;
48524;SDS011;34316;51.514;-0.178;2023-11-22T09:38:52;30.70;;;24.27;;
48524;SDS011;34316;51.514;-0.178;2023-11-22T09:40:54;31.42;;;23.55;;
48524;SDS011;34316;51.514;-0.178;2023-11-22T09:42:55;34.92;;;25.35;;
48524;SDS011;34316;51.514;-0.178;2023-11-22T09:44:59;31.58;;;22.63;;
48524;SDS011;34316;51.514;-0.178;2023-11-22T09:47:01;35.25;;;22.98;;
48524;SDS011;34316;51.514;-0.178;2023-11-22T09:49:05;33.90;;;24.48;;
48524;SDS011;34316;51.514;-0.178;2023-11-22T09:51:31;31.73;;;21.42;;
48524;SDS011;34316;51.514;-0.178;2023-11-22T09:53:40;24.00;;;19.85;;
48524;SDS011;34316;51.514;-0.178;2023-11-22T09:55:46;23.85;;;19.58;;
48524;SDS011;34316;51.514;-0.178;2023-11-22T09:57:48;25.25;;;20.15;;
48524;SDS011;34316;51.514;-0.178;2023-11-22T09:59:52;27.75;;;19.65;;
48524;SDS011;34316;51.514;-0.178;2023-11-22T10:04:01;36.85;;;25.90;;
48524;SDS011;34316;51.514;-0.178;2023-11-22T10:06:03;35.13;;;23.88;;
48524;SDS011;34316;51.514;-0.178;2023-11-22T10:08:06;30.02;;;23.75;;
48524;SDS011;34316;51.514;-0.178;2023-11-22T10:10:11;32.80;;;23.90;;
48524;SDS011;34316;51.514;-0.178;2023-11-22T10:12:19;31.73;;;23.27;;
48524;SDS011;34316;51.514;-0.178;2023-11-22T10:14:24;24.27;;;19.55;;
48524;SDS011;34316;51.514;-0.178;2023-11-22T10:16:28;26.30;;;19.52;;
48524;SDS011;34316;51.514;-0.178;2023-11-22T10:18:30;20.58;;;17.15;;
48524;SDS011;34316;51.514;-0.178;2023-11-22T10:22:45;20.60;;;16.92;;
48524;SDS011;34316;51.514;-0.178;2023-11-22T10:24:49;21.00;;;17.77;;
48524;SDS011;34316;51.514;-0.178;2023-11-22T10:26:53;21.67;;;16.92;;
48524;SDS011;34316;51.514;-0.178;2023-11-22T10:28:59;22.33;;;17.67;;
48524;SDS011;34316;51.514;-0.178;2023-11-22T10:31:01;21.55;;;18.08;;
48524;SDS011;34316;51.514;-0.178;2023-11-22T10:33:09;20.60;;;17.08;;
48524;SDS011;34316;51.514;-0.178;2023-11-22T10:35:16;24.77;;;17.60;;
48524;SDS011;34316;51.514;-0.178;2023-11-22T10:37:18;21.58;;;18.40;;
48524;SDS011;34316;51.514;-0.178;2023-11-22T10:39:22;19.67;;;17.38;;
48524;SDS011;34316;51.514;-0.178;2023-11-22T10:41:24;24.23;;;18.65;;
48524;SDS011;34316;51.514;-0.178;2023-11-22T10:43:26;18.67;;;16.58;;
48524;SDS011;34316;51.514;-0.178;2023-11-22T10:45:30;24.30;;;17.90;;
48524;SDS011;34316;51.514;-0.178;2023-11-22T10:47:32;21.35;;;17.48;;
48524;SDS011;34316;51.514;-0.178;2023-11-22T10:49:39;23.48;;;19.52;;
48524;SDS011;34316;51.514;-0.178;2023-11-22T10:51:42;25.40;;;20.27;;
48524;SDS011;34316;51.514;-0.178;2023-11-22T10:55:50;25.40;;;19.60;;
48524;SDS011;34316;51.514;-0.178;2023-11-22T10:57:55;25.55;;;20.48;;
48524;SDS011;34316;51.514;-0.178;2023-11-22T11:00:00;25.70;;;21.55;;
48524;SDS011;34316;51.514;-0.178;2023-11-22T11:02:07;27.25;;;19.75;;
48524;SDS011;34316;51.514;-0.178;2023-11-22T11:04:16;28.73;;;21.70;;
48524;SDS011;34316;51.514;-0.178;2023-11-22T11:06:23;27.23;;;21.50;;
48524;SDS011;34316;51.514;-0.178;2023-11-22T11:08:29;26.90;;;22.48;;
48524;SDS011;34316;51.514;-0.178;2023-11-22T11:10:31;32.08;;;22.20;;
48524;SDS011;34316;51.514;-0.178;2023-11-22T11:12:33;25.55;;;20.73;;
48524;SDS011;34316;51.514;-0.178;2023-11-22T11:14:35;25.63;;;20.45;;
48524;SDS011;34316;51.514;-0.178;2023-11-22T11:16:38;25.17;;;20.45;;
48524;SDS011;34316;51.514;-0.178;2023-11-22T11:18:43;24.23;;;20.85;;
48524;SDS011;34316;51.514;-0.178;2023-11-22T11:20:48;26.73;;;21.85;;
48524;SDS011;34316;51.514;-0.178;2023-11-22T11:22:54;29.98;;;22.23;;
48524;SDS011;34316;51.514;-0.178;2023-11-22T11:25:01;29.00;;;22.35;;
48524;SDS011;34316;51.514;-0.178;2023-11-22T11:27:06;28.45;;;21.85;;
48524;SDS011;34316;51.514;-0.178;2023-11-22T11:29:09;28.73;;;21.70;;
48524;SDS011;34316;51.514;-0.178;2023-11-22T11:31:32;29.50;;;21.40;;
48524;SDS011;34316;51.514;-0.178;2023-11-22T11:34:11;27.38;;;21.83;;
48524;SDS011;34316;51.514;-0.178;2023-11-22T11:36:09;25.95;;;21.45;;
48524;SDS011;34316;51.514;-0.178;2023-11-22T11:38:12;25.05;;;21.80;;
48524;SDS011;34316;51.514;-0.178;2023-11-22T11:40:26;28.17;;;21.75;;
48524;SDS011;34316;51.514;-0.178;2023-11-22T11:42:33;29.10;;;22.77;;
48524;SDS011;34316;51.514;-0.178;2023-11-22T11:44:34;26.27;;;20.02;;
48524;SDS011;34316;51.514;-0.178;2023-11-22T11:46:36;27.55;;;20.77;;
48524;SDS011;34316;51.514;-0.178;2023-11-22T11:48:47;25.30;;;21.33;;
48524;SDS011;34316;51.514;-0.178;2023-11-22T11:50:52;29.55;;;22.02;;
48524;SDS011;34316;51.514;-0.178;2023-11-22T11:54:56;30.48;;;24.92;;
48524;SDS011;34316;51.514;-0.178;2023-11-22T11:57:00;31.90;;;24.67;;
48524;SDS011;34316;51.514;-0.178;2023-11-22T11:59:02;32.22;;;25.02;;
48524;SDS011;34316;51.514;-0.178;2023-11-22T12:01:05;33.45;;;25.00;;
48524;SDS011;34316;51.514;-0.178;2023-11-22T12:03:08;42.58;;;25.27;;
48524;SDS011;34316;51.514;-0.178;2023-11-22T12:05:11;33.35;;;25.02;;
48524;SDS011;34316;51.514;-0.178;2023-11-22T12:07:14;28.52;;;24.40;;